Time;durP1;ratioP1;P1;durP2;ratioP2;P2;SDS_P1;SDS_P2;PMS_P1;PMS_P2;Temp;Humidity;BMP_temperature;BMP_pressure;BME280_temperature;BME280_humidity;BME280_pressure;Samples;Min_cycle;Max_cycle;Signal;HPM_P1;HPM_P2
2023/01/14 00:00:00;;;;;;;6.20;1.60;;;6.70;99.90;;;;;;5015091;28;20021;-60
2023/01/14 00:02:25;;;;;;;6.93;1.17;;;6.70;99.90;;;;;;5011372;28;20026;-60
2023/01/14 00:04:51;;;;;;;4.90;1.33;;;6.80;99.90;;;;;;5011613;28;20040;-61
2023/01/14 00:07:16;;;;;;;5.20;1.20;;;6.80;99.90;;;;;;5011728;28;20594;-60
2023/01/14 00:09:43;;;;;;;7.70;1.30;;;6.70;99.90;;;;;;5013985;28;20022;-59
2023/01/14 00:12:08;;;;;;;5.90;1.15;;;6.70;99.90;;;;;;5004020;28;20113;-59
2023/01/14 00:14:34;;;;;;;6.75;1.08;;;6.70;99.90;;;;;;5009360;28;20147;-60
2023/01/14 00:17:00;;;;;;;10.32;1.58;;;6.70;99.90;;;;;;4999807;28;20092;-59
2023/01/14 00:19:27;;;;;;;6.05;1.48;;;6.70;99.90;;;;;;4997568;28;20776;-60
2023/01/14 00:21:55;;;;;;;7.18;1.45;;;6.70;99.90;;;;;;5005484;28;20026;-60
2023/01/14 00:24:21;;;;;;;7.78;1.35;;;6.60;99.90;;;;;;5003558;28;20090;-59
2023/01/14 00:26:52;;;;;;;8.70;2.10;;;6.50;99.90;;;;;;5004831;28;20057;-58
2023/01/14 00:29:30;;;;;;;5.50;1.23;;;6.40;99.90;;;;;;5006861;28;20038;-60
2023/01/14 00:31:59;;;;;;;4.60;1.40;;;6.30;99.90;;;;;;5015513;28;20034;-60
2023/01/14 00:34:29;;;;;;;3.10;1.00;;;6.20;99.90;;;;;;5013836;28;20032;-59
2023/01/14 00:36:54;;;;;;;8.95;2.15;;;6.10;99.90;;;;;;5012711;28;20018;-61
2023/01/14 00:39:20;;;;;;;9.25;1.05;;;6.10;99.90;;;;;;5014678;28;20029;-59
2023/01/14 00:41:46;;;;;;;7.72;1.33;;;6.10;99.90;;;;;;5013567;28;20026;-59
2023/01/14 00:44:12;;;;;;;2.15;0.90;;;6.00;99.90;;;;;;5010614;28;20022;-60
2023/01/14 00:46:40;;;;;;;5.05;1.17;;;6.00;99.90;;;;;;5013382;28;20043;-59
2023/01/14 00:49:08;;;;;;;8.32;1.20;;;5.90;99.90;;;;;;5016503;28;20025;-59
2023/01/14 00:51:34;;;;;;;3.70;1.00;;;5.80;99.90;;;;;;5011917;28;20028;-60
2023/01/14 00:54:01;;;;;;;3.95;1.20;;;5.70;99.90;;;;;;5013264;28;20030;-60
2023/01/14 00:56:27;;;;;;;3.63;1.00;;;5.70;99.90;;;;;;5008462;28;20034;-59
2023/01/14 00:58:53;;;;;;;5.03;1.00;;;5.70;99.90;;;;;;5007986;28;20046;-59
2023/01/14 01:01:20;;;;;;;3.28;0.95;;;5.60;99.90;;;;;;5009065;28;20048;-61
2023/01/14 01:03:48;;;;;;;4.45;1.20;;;5.60;99.90;;;;;;5014303;28;20026;-60
2023/01/14 01:06:15;;;;;;;5.65;1.30;;;5.60;99.90;;;;;;5010491;28;20033;-59
2023/01/14 01:08:41;;;;;;;5.43;1.00;;;5.60;99.90;;;;;;5012650;28;20095;-60
2023/01/14 01:11:07;;;;;;;7.07;1.20;;;5.60;99.90;;;;;;5008799;28;20799;-59
2023/01/14 01:13:34;;;;;;;9.73;2.03;;;5.60;99.90;;;;;;5003394;28;20030;-59
2023/01/14 01:16:11;;;;;;;5.50;1.20;;;5.70;99.90;;;;;;5013139;28;20038;-60
2023/01/14 01:18:38;;;;;;;6.53;1.92;;;5.70;99.90;;;;;;5013236;28;20528;-59
2023/01/14 01:21:08;;;;;;;8.05;1.40;;;5.70;99.90;;;;;;5013105;28;20493;-59
2023/01/14 01:23:35;;;;;;;6.47;1.70;;;5.70;99.90;;;;;;5012037;28;20153;-60
2023/01/14 01:26:05;;;;;;;5.07;1.92;;;5.60;99.90;;;;;;5012705;28;20302;-60
2023/01/14 01:28:32;;;;;;;9.23;1.38;;;5.60;99.90;;;;;;5010383;28;20082;-59
2023/01/14 01:31:06;;;;;;;10.75;2.58;;;5.70;99.90;;;;;;5007017;28;20037;-61
2023/01/14 01:33:33;;;;;;;12.88;2.28;;;5.70;99.90;;;;;;5018891;28;20068;-60
2023/01/14 01:36:26;;;;;;;7.00;1.77;;;5.80;99.90;;;;;;5014800;28;20030;-61
2023/01/14 01:38:52;;;;;;;12.82;2.80;;;5.90;99.90;;;;;;5008541;28;20029;-58
2023/01/14 01:41:21;;;;;;;5.70;1.38;;;5.90;99.90;;;;;;5007792;28;20871;-59
2023/01/14 01:44:20;;;;;;;15.68;2.10;;;6.00;99.90;;;;;;5013329;28;20145;-60
2023/01/14 01:46:46;;;;;;;5.18;1.38;;;6.00;99.90;;;;;;4992027;28;20542;-60
2023/01/14 01:49:25;;;;;;;9.15;2.00;;;6.10;99.90;;;;;;5012240;28;20073;-60
2023/01/14 01:51:56;;;;;;;5.95;1.20;;;6.20;99.90;;;;;;5012011;28;20489;-59
2023/01/14 01:54:28;;;;;;;12.70;1.42;;;6.30;99.90;;;;;;5007123;28;20065;-59
2023/01/14 01:56:54;;;;;;;11.85;2.47;;;6.30;99.90;;;;;;5002097;28;20029;-60
2023/01/14 01:59:25;;;;;;;10.45;1.50;;;6.30;99.90;;;;;;5012094;28;20147;-59
2023/01/14 02:01:54;;;;;;;7.47;1.50;;;6.30;99.90;;;;;;5013984;28;20038;-59
2023/01/14 02:04:20;;;;;;;3.30;1.20;;;6.30;99.90;;;;;;5011544;28;20034;-59
2023/01/14 02:06:46;;;;;;;7.88;1.95;;;6.30;99.90;;;;;;5006518;28;20021;-59
2023/01/14 02:09:12;;;;;;;4.30;1.17;;;6.30;99.90;;;;;;5014506;28;20030;-59
2023/01/14 02:11:47;;;;;;;4.57;1.20;;;6.40;99.90;;;;;;5012139;28;20055;-59
2023/01/14 02:14:18;;;;;;;12.93;2.50;;;6.40;99.90;;;;;;5009838;28;20758;-58
2023/01/14 02:17:11;;;;;;;5.95;1.40;;;6.30;99.90;;;;;;5008381;28;20034;-59
2023/01/14 02:20:03;;;;;;;8.00;1.50;;;6.30;99.90;;;;;;5009095;28;20034;-59
2023/01/14 02:22:54;;;;;;;10.75;1.73;;;6.30;99.90;;;;;;5006035;28;20028;-59
2023/01/14 02:25:42;;;;;;;8.00;1.50;;;6.40;99.90;;;;;;5007481;28;20860;-59
2023/01/14 02:28:44;;;;;;;6.88;1.20;;;6.40;99.90;;;;;;4997001;28;20032;-59
2023/01/14 02:31:32;;;;;;;7.03;1.30;;;6.40;99.90;;;;;;5014617;28;20036;-59
2023/01/14 02:34:17;;;;;;;5.15;1.30;;;6.40;99.90;;;;;;5004508;28;20046;-59
2023/01/14 02:37:04;;;;;;;7.90;1.13;;;6.40;99.90;;;;;;5007669;28;20042;-59
2023/01/14 02:39:45;;;;;;;5.72;1.23;;;6.40;99.90;;;;;;5011161;28;20041;-60
2023/01/14 02:45:28;;;;;;;12.63;2.22;;;6.30;99.90;;;;;;5009369;28;20049;-59
2023/01/14 02:47:55;;;;;;;5.00;1.65;;;6.30;99.90;;;;;;5014652;28;20085;-58
2023/01/14 02:50:21;;;;;;;5.40;1.30;;;6.30;99.90;;;;;;5012604;28;20057;-58
2023/01/14 02:52:47;;;;;;;13.50;2.15;;;6.30;99.90;;;;;;5011340;28;20037;-59
2023/01/14 02:55:32;;;;;;;12.18;1.55;;;6.30;99.90;;;;;;5008744;28;20022;-60
2023/01/14 02:58:29;;;;;;;7.93;1.83;;;6.30;99.90;;;;;;5015664;28;20045;-59
2023/01/14 03:01:03;;;;;;;5.63;1.15;;;6.30;99.90;;;;;;5001236;28;20034;-59
2023/01/14 03:03:53;;;;;;;7.82;1.88;;;6.30;99.90;;;;;;5012765;28;20102;-57
2023/01/14 03:06:41;;;;;;;4.60;1.88;;;6.20;99.90;;;;;;5008182;28;20390;-59
2023/01/14 03:09:17;;;;;;;8.95;2.35;;;6.20;99.90;;;;;;5000973;28;20574;-58
2023/01/14 03:12:11;;;;;;;8.40;1.52;;;6.10;99.90;;;;;;4997743;28;20026;-58
2023/01/14 03:14:54;;;;;;;18.20;3.47;;;6.20;99.90;;;;;;5016510;28;20046;-59
2023/01/14 03:17:54;;;;;;;12.50;1.67;;;6.10;99.90;;;;;;5012519;28;20028;-60
2023/01/14 03:20:31;;;;;;;7.40;1.60;;;6.10;99.90;;;;;;4993081;28;20034;-59
2023/01/14 03:23:03;;;;;;;4.53;1.35;;;6.20;99.90;;;;;;5009468;28;20035;-58
2023/01/14 03:25:32;;;;;;;7.00;1.95;;;6.20;99.90;;;;;;5014944;28;20057;-59
2023/01/14 03:28:01;;;;;;;7.25;2.13;;;6.20;99.90;;;;;;5009331;28;20018;-59
2023/01/14 03:30:33;;;;;;;11.85;1.85;;;6.20;99.90;;;;;;5007308;28;20068;-60
2023/01/14 03:33:12;;;;;;;10.80;2.17;;;6.20;99.90;;;;;;5006448;28;20026;-59
2023/01/14 03:35:41;;;;;;;6.13;1.83;;;6.20;99.90;;;;;;5012049;28;20037;-58
2023/01/14 03:38:16;;;;;;;9.13;1.45;;;6.20;99.90;;;;;;5014651;28;20042;-59
2023/01/14 03:40:44;;;;;;;4.20;1.48;;;6.30;99.90;;;;;;5014984;28;20037;-59
2023/01/14 03:43:44;;;;;;;10.80;1.77;;;6.30;99.90;;;;;;5006551;28;20485;-58
2023/01/14 03:46:10;;;;;;;9.25;1.58;;;6.30;99.90;;;;;;5005779;28;20026;-60
2023/01/14 03:48:37;;;;;;;5.78;1.30;;;6.30;99.90;;;;;;5007908;28;20515;-60
2023/01/14 03:51:31;;;;;;;15.55;2.47;;;6.20;99.90;;;;;;5003905;28;20027;-59
2023/01/14 03:54:18;;;;;;;7.72;1.40;;;6.20;99.90;;;;;;5006111;28;20410;-60
2023/01/14 03:56:57;;;;;;;6.10;1.73;;;6.20;99.90;;;;;;5005109;28;20777;-58
2023/01/14 03:59:31;;;;;;;8.60;1.90;;;6.20;99.90;;;;;;5013266;28;20088;-59
2023/01/14 04:01:59;;;;;;;6.00;1.48;;;6.10;99.90;;;;;;5010119;28;20037;-58
2023/01/14 04:04:26;;;;;;;5.60;1.73;;;6.10;99.90;;;;;;5005864;28;20029;-59
2023/01/14 04:06:52;;;;;;;5.43;1.60;;;6.10;99.90;;;;;;5006381;28;20022;-58
2023/01/14 04:09:18;;;;;;;7.53;1.45;;;6.10;99.90;;;;;;5007236;28;20219;-59
2023/01/14 04:11:43;;;;;;;10.75;1.88;;;6.10;99.90;;;;;;5012598;28;20116;-58
2023/01/14 04:16:54;;;;;;;11.98;1.95;;;6.10;99.90;;;;;;5018177;28;20037;-61
2023/01/14 04:19:19;;;;;;;5.63;2.28;;;6.10;99.90;;;;;;5009715;28;20486;-59
2023/01/14 04:21:45;;;;;;;7.88;1.67;;;6.10;99.90;;;;;;5009387;28;20049;-59
2023/01/14 04:24:11;;;;;;;9.82;1.80;;;6.10;99.90;;;;;;5005160;28;20114;-59
2023/01/14 04:26:36;;;;;;;11.50;1.73;;;6.10;99.90;;;;;;5010785;28;20549;-59
2023/01/14 04:29:03;;;;;;;18.83;2.47;;;6.10;99.90;;;;;;5019598;28;20054;-58
2023/01/14 04:31:29;;;;;;;11.65;1.70;;;6.10;99.90;;;;;;5008916;28;20022;-59
2023/01/14 04:33:55;;;;;;;12.05;2.10;;;6.10;99.90;;;;;;5009449;28;20115;-59
2023/01/14 04:36:20;;;;;;;6.38;1.60;;;6.00;99.90;;;;;;5019665;28;20026;-59
2023/01/14 04:38:46;;;;;;;13.02;2.28;;;6.00;99.90;;;;;;5017432;28;20049;-59
2023/01/14 04:42:26;;;;;;;15.45;1.83;;;6.00;99.90;;;;;;5014341;28;20088;-59
2023/01/14 04:43:57;;;;;;;6.00;1.52;;;6.10;99.90;;;;;;5013817;28;20100;-59
2023/01/14 04:46:23;;;;;;;5.00;2.25;;;6.00;99.90;;;;;;5011811;28;20027;-58
2023/01/14 04:48:48;;;;;;;9.00;1.60;;;6.10;99.90;;;;;;5007576;28;20133;-59
2023/01/14 04:51:14;;;;;;;7.60;1.60;;;6.10;99.90;;;;;;5018247;28;20033;-59
2023/01/14 04:53:40;;;;;;;13.90;3.05;;;6.10;99.90;;;;;;5018368;28;20540;-58
2023/01/14 04:56:06;;;;;;;9.02;1.67;;;6.10;99.90;;;;;;5011241;28;20057;-58
2023/01/14 04:58:31;;;;;;;10.45;2.47;;;6.00;99.90;;;;;;5009539;28;20117;-59
2023/01/14 05:00:57;;;;;;;6.32;1.85;;;6.00;99.90;;;;;;5012257;28;20020;-59
2023/01/14 05:03:23;;;;;;;14.27;2.03;;;6.00;99.90;;;;;;5019572;28;20025;-59
2023/01/14 05:05:48;;;;;;;8.10;2.13;;;6.00;99.90;;;;;;5012240;28;20032;-59
2023/01/14 05:08:14;;;;;;;11.48;2.15;;;6.00;99.90;;;;;;5007509;28;20031;-58
2023/01/14 05:10:40;;;;;;;8.55;2.40;;;6.00;99.90;;;;;;5006537;28;20033;-58
2023/01/14 05:13:07;;;;;;;15.98;2.97;;;6.00;99.90;;;;;;5010488;28;20080;-58
2023/01/14 05:15:43;;;;;;;8.13;1.38;;;5.90;99.90;;;;;;5019200;28;20046;-59
2023/01/14 05:18:11;;;;;;;13.15;2.75;;;5.90;99.90;;;;;;5019556;28;20037;-58
2023/01/14 05:20:37;;;;;;;11.43;1.60;;;5.90;99.90;;;;;;5016308;28;20026;-59
2023/01/14 05:23:06;;;;;;;8.48;2.33;;;5.90;99.90;;;;;;5016441;28;20058;-58
2023/01/14 05:25:34;;;;;;;5.35;1.50;;;5.90;99.90;;;;;;5013614;28;20394;-59
2023/01/14 05:28:03;;;;;;;15.40;2.65;;;5.90;99.90;;;;;;5013555;28;20144;-60
2023/01/14 05:30:30;;;;;;;11.73;2.03;;;5.90;99.90;;;;;;5013138;28;20073;-58
2023/01/14 05:32:56;;;;;;;12.95;1.92;;;5.90;99.90;;;;;;5010298;28;20037;-58
2023/01/14 05:35:22;;;;;;;13.07;2.03;;;5.90;99.90;;;;;;5010438;28;20030;-59
2023/01/14 05:37:48;;;;;;;23.52;3.28;;;5.80;99.90;;;;;;5010760;28;20456;-59
2023/01/14 05:40:13;;;;;;;10.05;1.63;;;5.80;99.90;;;;;;5014310;28;20068;-59
2023/01/14 05:45:41;;;;;;;10.32;1.77;;;5.80;99.90;;;;;;5013099;28;20033;-59
2023/01/14 05:48:10;;;;;;;10.07;1.98;;;5.80;99.90;;;;;;5011093;28;20026;-59
2023/01/14 05:50:37;;;;;;;10.82;2.03;;;5.80;99.90;;;;;;5006969;28;20030;-58
2023/01/14 05:53:03;;;;;;;12.98;2.53;;;5.80;99.90;;;;;;5010728;28;20486;-59
2023/01/14 05:55:29;;;;;;;11.13;1.77;;;5.80;99.90;;;;;;5012338;28;20025;-60
2023/01/14 05:57:59;;;;;;;8.40;1.85;;;5.80;99.90;;;;;;5018425;28;20144;-60
2023/01/14 06:08:42;;;;;;;9.25;1.75;;;5.60;99.90;;;;;;5018492;28;20100;-60
2023/01/14 06:11:09;;;;;;;7.88;2.90;;;5.50;99.90;;;;;;5010441;28;20030;-59
2023/01/14 06:13:34;;;;;;;6.13;1.95;;;5.50;99.90;;;;;;5014433;28;20406;-58
2023/01/14 06:16:02;;;;;;;13.70;2.92;;;5.50;99.90;;;;;;5010671;28;20014;-58
2023/01/14 06:18:37;;;;;;;11.30;2.10;;;5.40;99.90;;;;;;5012396;28;20512;-58
2023/01/14 06:21:05;;;;;;;10.70;1.95;;;5.50;99.90;;;;;;5009599;28;20724;-59
2023/01/14 06:23:31;;;;;;;16.98;1.45;;;5.40;99.90;;;;;;5009917;28;20022;-58
2023/01/14 06:25:56;;;;;;;19.42;4.50;;;5.40;99.90;;;;;;5010056;28;20512;-58
2023/01/14 06:28:22;;;;;;;14.30;2.25;;;5.40;99.90;;;;;;5011461;28;20044;-59
2023/01/14 06:30:48;;;;;;;12.18;1.98;;;5.40;99.90;;;;;;5014149;28;20083;-58
2023/01/14 06:33:14;;;;;;;8.20;2.00;;;5.40;99.90;;;;;;5012534;28;20116;-58
2023/01/14 06:35:43;;;;;;;10.43;1.92;;;5.30;99.90;;;;;;5004931;28;20092;-58
2023/01/14 06:38:10;;;;;;;15.27;2.60;;;5.30;99.90;;;;;;5005795;28;20129;-58
2023/01/14 06:40:40;;;;;;;9.43;1.67;;;5.20;99.90;;;;;;5007135;28;20026;-58
2023/01/14 06:43:06;;;;;;;9.75;1.80;;;5.20;99.90;;;;;;5008615;28;20498;-59
2023/01/14 06:45:32;;;;;;;9.50;1.67;;;5.20;99.90;;;;;;5009109;28;20029;-58
2023/01/14 06:47:58;;;;;;;11.18;2.47;;;5.20;99.90;;;;;;5004352;28;20125;-60
2023/01/14 06:50:24;;;;;;;7.03;2.65;;;5.20;99.90;;;;;;5006308;28;20037;-59
2023/01/14 06:52:52;;;;;;;8.13;2.63;;;5.30;99.90;;;;;;5012288;28;20088;-59
2023/01/14 06:55:18;;;;;;;16.52;3.35;;;5.30;99.90;;;;;;5009957;28;20113;-59
2023/01/14 06:57:45;;;;;;;14.60;2.50;;;5.20;99.90;;;;;;5007070;28;20046;-59
2023/01/14 07:00:11;;;;;;;7.93;1.80;;;5.20;99.90;;;;;;5009830;28;20088;-60
2023/01/14 07:02:37;;;;;;;12.60;2.70;;;5.20;99.90;;;;;;5012103;28;20359;-59
2023/01/14 07:05:03;;;;;;;13.80;2.28;;;5.10;99.90;;;;;;5007179;28;20116;-58
2023/01/14 07:07:29;;;;;;;11.38;2.45;;;4.90;99.90;;;;;;5013106;28;20112;-58
2023/01/14 07:09:55;;;;;;;16.85;2.25;;;4.80;99.90;;;;;;5017681;28;20044;-59
2023/01/14 07:12:22;;;;;;;16.25;2.67;;;4.70;99.90;;;;;;5015402;28;20037;-58
2023/01/14 07:14:47;;;;;;;16.58;2.38;;;4.50;99.90;;;;;;5011080;28;20083;-57
2023/01/14 07:17:13;;;;;;;10.18;1.88;;;4.40;99.90;;;;;;5008745;28;20026;-58
2023/01/14 07:19:38;;;;;;;7.85;2.25;;;4.30;99.90;;;;;;5006989;28;20053;-59
2023/01/14 07:22:04;;;;;;;14.23;3.15;;;4.30;99.90;;;;;;5009204;28;20022;-58
2023/01/14 07:24:30;;;;;;;19.20;2.47;;;4.40;99.90;;;;;;5013306;28;20038;-58
2023/01/14 07:26:55;;;;;;;17.08;2.28;;;4.50;99.90;;;;;;5007472;28;20061;-58
2023/01/14 07:29:21;;;;;;;21.15;2.95;;;4.50;99.90;;;;;;5004209;28;20641;-58
2023/01/14 07:31:46;;;;;;;11.55;2.38;;;4.60;99.90;;;;;;5013522;28;20430;-57
2023/01/14 07:34:12;;;;;;;6.65;1.73;;;4.70;99.90;;;;;;5007224;28;20018;-58
2023/01/14 07:36:38;;;;;;;17.80;4.93;;;4.70;99.90;;;;;;5009603;28;20034;-58
2023/01/14 07:39:04;;;;;;;9.25;2.50;;;4.70;99.90;;;;;;5010670;28;20030;-59
2023/01/14 07:41:29;;;;;;;13.93;1.92;;;4.70;99.90;;;;;;5004675;28;20031;-59
2023/01/14 07:43:55;;;;;;;13.68;1.88;;;4.70;99.90;;;;;;5010861;28;20038;-60
2023/01/14 07:46:21;;;;;;;11.88;2.17;;;4.70;99.90;;;;;;5011545;28;20022;-59
2023/01/14 07:48:46;;;;;;;17.58;1.88;;;4.70;99.90;;;;;;5007194;28;20793;-60
2023/01/14 07:51:20;;;;;;;19.08;3.65;;;4.70;99.90;;;;;;5004919;28;20498;-58
2023/01/14 07:53:46;;;;;;;12.85;2.15;;;4.80;99.90;;;;;;5005467;28;20036;-58
2023/01/14 07:56:12;;;;;;;12.68;2.17;;;4.80;99.90;;;;;;5009457;28;20048;-60
2023/01/14 07:58:38;;;;;;;15.10;2.20;;;4.80;99.90;;;;;;5005953;28;20068;-58
2023/01/14 08:01:08;;;;;;;14.00;2.80;;;4.80;99.90;;;;;;5007528;28;20129;-60
2023/01/14 08:03:33;;;;;;;17.27;2.47;;;4.80;99.90;;;;;;5006087;28;20080;-59
2023/01/14 08:06:04;;;;;;;17.00;3.05;;;4.90;99.90;;;;;;5008729;28;20041;-59
2023/01/14 08:08:30;;;;;;;7.22;1.80;;;4.90;99.90;;;;;;5012383;28;20126;-60
2023/01/14 08:10:59;;;;;;;10.27;2.47;;;5.00;99.90;;;;;;5018440;28;20104;-58
2023/01/14 08:13:24;;;;;;;6.05;1.60;;;5.10;99.90;;;;;;5009886;28;20049;-58
2023/01/14 08:15:58;;;;;;;10.40;1.83;;;5.10;99.90;;;;;;5008253;28;20087;-58
2023/01/14 08:18:24;;;;;;;16.45;1.75;;;5.20;99.90;;;;;;5008975;28;20117;-59
2023/01/14 08:20:57;;;;;;;15.65;1.73;;;5.30;99.90;;;;;;5008053;28;20192;-58
2023/01/14 08:23:23;;;;;;;12.63;1.88;;;5.30;99.90;;;;;;5009949;28;20030;-58
2023/01/14 08:25:49;;;;;;;15.23;2.28;;;5.30;99.90;;;;;;5008595;28;20047;-57
2023/01/14 08:28:14;;;;;;;20.13;2.47;;;5.30;99.90;;;;;;5013540;28;20021;-60
2023/01/14 08:30:40;;;;;;;13.07;2.17;;;5.40;99.90;;;;;;5012798;28;20038;-59
2023/01/14 08:33:07;;;;;;;7.53;1.63;;;5.50;99.90;;;;;;5009575;28;20029;-59
2023/01/14 08:35:37;;;;;;;14.98;2.72;;;5.60;99.90;;;;;;5010728;28;20226;-59
2023/01/14 08:38:02;;;;;;;12.05;2.30;;;5.70;99.90;;;;;;5013427;28;20033;-58
2023/01/14 08:40:28;;;;;;;13.10;3.03;;;5.90;99.90;;;;;;5011098;28;20492;-59
2023/01/14 08:42:54;;;;;;;11.27;2.17;;;6.00;99.90;;;;;;5009438;28;20714;-59
2023/01/14 08:45:19;;;;;;;7.47;1.55;;;6.00;99.90;;;;;;5007707;28;20179;-58
2023/01/14 08:47:45;;;;;;;11.48;2.75;;;6.00;99.90;;;;;;5007605;28;20105;-59
2023/01/14 08:50:11;;;;;;;18.52;2.80;;;6.00;99.90;;;;;;5010972;28;20623;-58
2023/01/14 08:52:36;;;;;;;9.02;2.47;;;6.10;99.90;;;;;;5006949;28;20093;-58
2023/01/14 08:55:02;;;;;;;11.85;1.70;;;6.10;99.90;;;;;;5009574;28;20470;-59
2023/01/14 08:57:28;;;;;;;13.05;3.35;;;6.20;99.90;;;;;;5008962;28;20033;-58
2023/01/14 08:59:54;;;;;;;4.88;1.45;;;6.30;99.90;;;;;;5015160;28;20061;-59
2023/01/14 09:02:19;;;;;;;12.50;1.98;;;6.30;99.90;;;;;;5013784;28;20042;-59
2023/01/14 09:04:45;;;;;;;11.40;2.33;;;6.30;99.90;;;;;;5017564;28;20078;-58
2023/01/14 09:18:09;;;;;;;7.72;1.50;;;7.10;99.90;;;;;;5016961;28;20065;-59
2023/01/14 09:20:37;;;;;;;13.48;2.35;;;7.20;99.90;;;;;;5014570;28;20030;-59
2023/01/14 09:23:05;;;;;;;10.30;1.50;;;7.10;99.90;;;;;;5015675;28;20032;-61
2023/01/14 09:25:30;;;;;;;6.95;1.50;;;7.10;99.90;;;;;;5007561;28;20414;-59
2023/01/14 09:27:56;;;;;;;7.45;1.40;;;7.10;99.90;;;;;;5011974;28;20022;-59
2023/01/14 09:30:22;;;;;;;6.22;1.30;;;7.00;99.90;;;;;;5008612;28;20037;-59
2023/01/14 09:32:48;;;;;;;5.72;1.73;;;7.00;99.90;;;;;;5014590;28;20034;-59
2023/01/14 09:35:13;;;;;;;7.75;1.70;;;6.90;99.90;;;;;;5009157;28;20052;-59
2023/01/14 09:37:39;;;;;;;7.10;2.17;;;6.90;99.90;;;;;;5011390;28;20036;-59
2023/01/14 09:40:05;;;;;;;12.25;1.60;;;6.70;99.90;;;;;;5008352;28;20034;-60
2023/01/14 09:42:47;;;;;;;6.13;1.38;;;6.70;99.90;;;;;;5008383;28;20022;-59
2023/01/14 09:45:28;;;;;;;8.68;1.83;;;6.60;99.90;;;;;;5009834;28;20160;-58
2023/01/14 09:47:57;;;;;;;6.78;1.45;;;6.70;99.90;;;;;;5014690;28;20113;-58
2023/01/14 09:50:36;;;;;;;9.25;1.77;;;6.70;99.90;;;;;;5012954;28;20038;-59
2023/01/14 09:53:58;;;;;;;5.30;1.35;;;6.70;99.90;;;;;;5014771;28;20401;-57
2023/01/14 09:56:31;;;;;;;5.10;1.38;;;6.70;99.90;;;;;;4972157;28;20041;-58
2023/01/14 09:59:38;;;;;;;5.47;1.45;;;6.70;99.90;;;;;;4970307;28;20065;-58
2023/01/14 10:02:23;;;;;;;5.97;1.73;;;6.90;99.90;;;;;;5008000;28;20529;-59
2023/01/14 10:05:10;;;;;;;8.05;2.05;;;6.80;99.90;;;;;;5010159;28;20034;-59
2023/01/14 10:07:36;;;;;;;10.93;1.75;;;6.90;99.90;;;;;;5010843;28;20112;-58
2023/01/14 10:10:03;;;;;;;7.22;2.20;;;7.00;99.90;;;;;;5012401;28;20105;-58
2023/01/14 10:12:39;;;;;;;9.02;1.70;;;7.00;99.90;;;;;;5010759;28;20059;-57
2023/01/14 10:15:44;;;;;;;6.90;2.03;;;7.10;99.90;;;;;;5010912;28;20026;-58
2023/01/14 10:18:22;;;;;;;4.57;1.83;;;7.20;99.90;;;;;;5013719;28;20058;-58
2023/01/14 10:21:22;;;;;;;9.45;1.65;;;7.20;99.90;;;;;;5006046;28;20734;-58
2023/01/14 10:23:48;;;;;;;5.45;1.92;;;7.20;99.90;;;;;;5003692;28;20189;-58
2023/01/14 10:26:17;;;;;;;7.38;1.30;;;7.10;99.90;;;;;;5011557;28;20120;-58
2023/01/14 10:28:45;;;;;;;12.80;2.45;;;7.10;99.90;;;;;;5014079;28;20486;-58
2023/01/14 10:31:18;;;;;;;5.95;2.00;;;7.10;99.90;;;;;;5015177;28;20136;-58
2023/01/14 10:33:45;;;;;;;7.00;1.17;;;7.10;99.90;;;;;;5004888;28;20034;-58
2023/01/14 10:36:18;;;;;;;6.97;1.17;;;7.10;99.90;;;;;;5007574;28;20063;-58
2023/01/14 10:38:45;;;;;;;5.88;1.20;;;7.00;99.90;;;;;;5011664;28;20033;-59
2023/01/14 10:41:12;;;;;;;5.90;1.70;;;7.00;99.90;;;;;;5006842;28;20026;-58
2023/01/14 10:43:44;;;;;;;4.93;1.10;;;7.00;99.90;;;;;;5001565;28;20045;-58
2023/01/14 10:46:19;;;;;;;4.03;1.55;;;6.90;99.90;;;;;;5003125;28;20351;-60
2023/01/14 10:49:00;;;;;;;3.17;1.27;;;6.80;99.90;;;;;;5008329;28;20132;-60
2023/01/14 10:51:36;;;;;;;8.35;2.13;;;6.70;99.90;;;;;;5008122;28;20505;-59
2023/01/14 10:54:24;;;;;;;6.70;1.20;;;6.70;99.90;;;;;;5014844;28;20049;-59
2023/01/14 10:56:52;;;;;;;11.10;1.52;;;6.70;99.90;;;;;;5009036;28;20040;-58
2023/01/14 10:59:26;;;;;;;8.52;1.60;;;6.60;99.90;;;;;;5011077;28;20114;-59
2023/01/14 11:01:52;;;;;;;14.20;1.60;;;6.60;99.90;;;;;;5014688;28;20115;-59
2023/01/14 11:04:22;;;;;;;6.57;1.27;;;6.60;99.90;;;;;;5013618;28;20038;-60
2023/01/14 11:06:48;;;;;;;8.57;2.05;;;6.60;99.90;;;;;;5011656;28;20413;-59
2023/01/14 11:09:21;;;;;;;6.60;1.33;;;6.70;99.90;;;;;;5008738;28;20025;-59
2023/01/14 11:11:48;;;;;;;9.00;2.22;;;6.70;99.90;;;;;;5007577;28;20482;-58
2023/01/14 11:14:25;;;;;;;5.38;1.25;;;6.80;99.90;;;;;;5009488;28;20029;-60
2023/01/14 11:16:51;;;;;;;8.95;1.95;;;6.80;99.90;;;;;;5012398;28;20498;-57
2023/01/14 11:19:21;;;;;;;5.53;1.52;;;6.90;99.90;;;;;;5010987;28;20040;-59
2023/01/14 11:21:55;;;;;;;6.25;1.27;;;7.00;99.90;;;;;;5012300;28;20217;-59
2023/01/14 11:24:36;;;;;;;8.23;1.60;;;7.00;99.90;;;;;;5007728;28;20044;-59
2023/01/14 11:27:18;;;;;;;8.32;2.13;;;7.10;99.90;;;;;;5009887;28;20041;-58
2023/01/14 11:29:57;;;;;;;4.53;1.40;;;7.10;99.90;;;;;;5015095;28;20029;-59
2023/01/14 11:32:33;;;;;;;7.78;2.08;;;7.20;99.90;;;;;;5014224;28;20505;-59
2023/01/14 11:35:15;;;;;;;7.07;1.80;;;7.30;99.90;;;;;;5010482;28;20034;-56
2023/01/14 11:37:47;;;;;;;9.20;2.65;;;7.20;99.90;;;;;;5009275;28;20029;-59
2023/01/14 11:43:21;;;;;;;5.95;1.40;;;7.20;99.90;;;;;;5011622;28;20064;-58
2023/01/14 11:45:55;;;;;;;4.97;1.27;;;7.20;99.90;;;;;;5010406;28;20569;-57
2023/01/14 11:48:29;;;;;;;9.02;1.40;;;7.20;99.90;;;;;;5009321;28;20038;-59
2023/01/14 11:51:14;;;;;;;3.45;1.27;;;7.20;99.90;;;;;;5004746;28;20025;-58
2023/01/14 11:53:47;;;;;;;5.40;1.48;;;7.20;99.90;;;;;;5010571;28;20077;-59
2023/01/14 11:56:16;;;;;;;3.40;1.20;;;7.20;99.90;;;;;;5005271;28;20034;-59
2023/01/14 11:58:42;;;;;;;10.57;2.20;;;7.20;99.90;;;;;;5003907;28;20136;-58
2023/01/14 12:01:30;;;;;;;5.13;1.65;;;7.20;99.90;;;;;;5004279;28;20037;-59
2023/01/14 12:04:04;;;;;;;7.57;1.13;;;7.20;99.90;;;;;;5009855;28;20049;-60
2023/01/14 12:06:43;;;;;;;5.40;1.40;;;7.20;99.90;;;;;;5011016;28;20033;-58
2023/01/14 12:09:21;;;;;;;16.40;2.05;;;7.20;99.90;;;;;;5012329;28;20786;-58
2023/01/14 12:12:02;;;;;;;5.93;1.83;;;7.20;99.90;;;;;;5012269;28;20026;-58
2023/01/14 12:17:35;;;;;;;12.00;1.77;;;7.30;99.90;;;;;;5002515;28;20041;-59
2023/01/14 12:20:12;;;;;;;8.75;1.45;;;7.30;99.90;;;;;;5001962;28;20402;-58
2023/01/14 12:23:05;;;;;;;10.52;1.70;;;7.30;99.90;;;;;;4999801;28;20022;-59
2023/01/14 12:25:38;;;;;;;7.93;1.58;;;7.30;99.90;;;;;;5002804;28;20099;-59
2023/01/14 12:28:05;;;;;;;5.75;1.45;;;7.30;99.90;;;;;;5025293;28;20052;-59
2023/01/14 12:30:46;;;;;;;3.90;1.65;;;7.40;99.90;;;;;;5006803;28;20501;-59
2023/01/14 12:33:31;;;;;;;7.88;1.60;;;7.40;99.90;;;;;;5006755;28;20116;-58
2023/01/14 12:36:19;;;;;;;6.10;1.65;;;7.50;99.90;;;;;;5006423;28;20030;-59
2023/01/14 12:47:44;;;;;;;4.05;1.55;;;7.80;99.90;;;;;;5015927;28;20052;-59
2023/01/14 12:50:13;;;;;;;8.95;1.70;;;7.90;99.90;;;;;;5014906;28;20050;-60
2023/01/14 12:52:49;;;;;;;5.43;2.15;;;7.80;99.90;;;;;;5007206;28;20064;-60
2023/01/14 12:55:32;;;;;;;2.92;1.17;;;7.90;99.90;;;;;;5010463;28;20029;-59
2023/01/14 12:57:59;;;;;;;5.57;1.40;;;7.90;99.90;;;;;;5012357;28;20508;-60
2023/01/14 13:00:29;;;;;;;5.18;1.33;;;7.90;99.90;;;;;;5009441;28;20076;-58
2023/01/14 13:02:57;;;;;;;4.35;1.30;;;7.90;99.90;;;;;;5011237;28;20500;-59
2023/01/14 13:05:34;;;;;;;6.03;1.48;;;7.90;99.90;;;;;;5021465;28;20040;-61
2023/01/14 13:08:03;;;;;;;6.63;1.52;;;7.90;99.90;;;;;;5014111;28;20152;-59
2023/01/14 13:10:35;;;;;;;5.03;1.30;;;7.90;99.90;;;;;;5018315;28;20037;-58
2023/01/14 13:13:03;;;;;;;3.65;1.30;;;7.90;99.90;;;;;;5009388;28;20011;-58
2023/01/14 13:15:35;;;;;;;2.78;1.08;;;7.80;99.90;;;;;;5005748;28;20026;-59
2023/01/14 13:18:03;;;;;;;5.03;1.75;;;7.80;99.90;;;;;;5006942;28;20026;-58
2023/01/14 13:20:29;;;;;;;4.30;1.50;;;7.80;99.90;;;;;;5019484;28;20030;-59
2023/01/14 13:22:55;;;;;;;5.03;0.93;;;7.80;99.90;;;;;;5016660;28;20030;-58
2023/01/14 13:25:32;;;;;;;3.30;0.93;;;7.70;99.90;;;;;;5010940;28;20034;-60
2023/01/14 13:28:23;;;;;;;4.35;1.00;;;7.70;99.90;;;;;;5003856;28;20045;-59
2023/01/14 13:31:11;;;;;;;4.85;1.75;;;7.70;99.90;;;;;;5008551;28;20709;-58
2023/01/14 13:33:39;;;;;;;3.03;1.00;;;7.70;99.90;;;;;;5001086;28;20091;-58
2023/01/14 13:36:11;;;;;;;6.30;1.00;;;7.70;99.90;;;;;;5004318;28;20402;-58
2023/01/14 13:38:39;;;;;;;;;;;7.60;99.90;;;;;;5006295;28;20019;-59
2023/01/14 13:41:06;;;;;;;10.45;1.50;;;7.60;99.90;;;;;;5003733;28;20349;-59
2023/01/14 13:43:51;;;;;;;3.38;1.33;;;7.60;99.90;;;;;;5011349;28;20026;-58
2023/01/14 13:46:39;;;;;;;6.65;1.13;;;7.60;99.90;;;;;;5011136;28;20014;-58
2023/01/14 13:49:20;;;;;;;4.28;1.60;;;7.60;99.90;;;;;;5012847;28;20045;-60
2023/01/14 13:51:48;;;;;;;4.63;1.15;;;7.60;99.90;;;;;;5002746;28;20040;-58
2023/01/14 13:54:31;;;;;;;7.78;1.05;;;7.50;99.90;;;;;;5013692;28;20025;-59
2023/01/14 13:57:26;;;;;;;5.40;0.90;;;7.50;99.90;;;;;;5010574;28;20084;-60